Time;durP1;ratioP1;P1;durP2;ratioP2;P2;SDS_P1;SDS_P2;PMS_P1;PMS_P2;Temp;Humidity;BMP_temperature;BMP_pressure;BME280_temperature;BME280_humidity;BME280_pressure;Samples;Min_cycle;Max_cycle;Signal;HPM_P1;HPM_P2
2021/07/26 00:02:02;;;;;;;6.90;5.93;;;;;;;;;;5075722;28;21009;-84
2021/07/26 00:04:29;;;;;;;5.40;5.00;;;;;;;;;;5076393;28;20450;-83
2021/07/26 00:06:58;;;;;;;6.33;5.47;;;;;;;;;;5075905;28;20496;-84
2021/07/26 00:09:25;;;;;;;12.30;6.20;;;;;;;;;;5075592;28;20449;-84
2021/07/26 00:11:52;;;;;;;6.27;5.60;;;;;;;;;;5075664;28;20930;-84
2021/07/26 00:14:19;;;;;;;7.20;5.60;;;;;;;;;;5078118;28;20953;-84
2021/07/26 00:16:46;;;;;;;7.00;5.47;;;;;;;;;;5076901;28;20805;-84
2021/07/26 00:19:13;;;;;;;9.87;5.83;;;;;;;;;;5077451;28;20438;-85
2021/07/26 00:21:41;;;;;;;6.67;5.97;;;;;;;;;;5083030;28;20456;-84
2021/07/26 00:24:09;;;;;;;8.73;6.57;;;;;;;;;;5079601;28;20452;-84
2021/07/26 00:26:36;;;;;;;6.87;6.17;;;;;;;;;;5079556;28;20576;-85
2021/07/26 00:29:04;;;;;;;8.57;6.50;;;;;;;;;;5076128;28;20465;-86
2021/07/26 00:31:31;;;;;;;7.60;5.90;;;;;;;;;;5076100;28;20441;-85
2021/07/26 00:34:13;;;;;;;7.60;5.70;;;;;;;;;;5076226;28;20478;-85
2021/07/26 00:36:41;;;;;;;5.67;4.90;;;;;;;;;;5076211;28;20450;-85
2021/07/26 00:39:10;;;;;;;9.60;7.20;;;;;;;;;;5043506;28;20825;-84
2021/07/26 00:41:38;;;;;;;6.97;6.33;;;;;;;;;;5035722;28;20448;-85
2021/07/26 00:44:06;;;;;;;7.60;5.80;;;;;;;;;;5035322;28;20451;-85
2021/07/26 00:46:33;;;;;;;11.97;6.87;;;;;;;;;;5035458;28;20483;-85
2021/07/26 00:49:03;;;;;;;6.67;6.07;;;;;;;;;;5035204;28;20460;-85
2021/07/26 00:51:30;;;;;;;7.70;5.70;;;;;;;;;;5035146;28;20891;-85
2021/07/26 00:53:58;;;;;;;5.77;5.20;;;;;;;;;;5035167;28;20457;-85
2021/07/26 00:56:27;;;;;;;7.50;6.27;;;;;;;;;;5034932;28;20446;-86
2021/07/26 00:58:54;;;;;;;7.17;5.73;;;;;;;;;;5035004;28;20945;-86
2021/07/26 01:01:21;;;;;;;7.93;6.20;;;;;;;;;;5035098;28;20530;-84
2021/07/26 01:03:49;;;;;;;6.13;5.57;;;;;;;;;;5036076;28;20506;-84
2021/07/26 01:06:16;;;;;;;6.97;6.30;;;;;;;;;;5035857;28;20479;-83
2021/07/26 01:08:43;;;;;;;5.70;5.20;;;;;;;;;;5035256;28;20929;-82
2021/07/26 01:11:10;;;;;;;6.40;5.80;;;;;;;;;;5034475;28;20942;-82
2021/07/26 01:13:39;;;;;;;7.03;6.20;;;;;;;;;;5034606;28;20444;-81
2021/07/26 01:16:06;;;;;;;7.90;6.17;;;;;;;;;;5034489;28;20956;-81
2021/07/26 01:18:34;;;;;;;8.30;6.60;;;;;;;;;;5034305;28;20447;-81
2021/07/26 01:21:03;;;;;;;10.60;8.00;;;;;;;;;;5034347;28;20447;-82
2021/07/26 01:23:31;;;;;;;7.40;6.70;;;;;;;;;;5034482;28;20480;-82
2021/07/26 01:25:59;;;;;;;6.83;6.23;;;;;;;;;;5034101;28;20449;-82
2021/07/26 01:28:27;;;;;;;6.97;6.00;;;;;;;;;;5034369;28;20455;-82
2021/07/26 01:30:55;;;;;;;6.83;6.10;;;;;;;;;;5034735;28;20531;-82
2021/07/26 01:33:22;;;;;;;9.00;7.10;;;;;;;;;;5034009;28;20445;-82
2021/07/26 01:35:50;;;;;;;7.13;6.20;;;;;;;;;;5034344;28;20457;-82
2021/07/26 01:38:18;;;;;;;6.93;6.30;;;;;;;;;;5034333;28;21035;-82
2021/07/26 01:40:50;;;;;;;8.60;7.20;;;;;;;;;;5033985;28;20460;-82
2021/07/26 01:43:18;;;;;;;7.40;6.70;;;;;;;;;;5034229;28;20564;-82
2021/07/26 01:45:56;;;;;;;11.00;6.50;;;;;;;;;;5034156;28;20448;-82
2021/07/26 01:48:27;;;;;;;8.70;6.70;;;;;;;;;;5033948;28;20436;-82
2021/07/26 01:50:59;;;;;;;7.43;6.73;;;;;;;;;;5035234;28;20436;-85
2021/07/26 01:53:28;;;;;;;7.73;7.03;;;;;;;;;;5035572;28;20433;-84
2021/07/26 01:55:56;;;;;;;10.90;6.30;;;;;;;;;;5033707;28;20455;-83
2021/07/26 01:58:23;;;;;;;10.60;7.93;;;;;;;;;;5033904;28;20502;-83
2021/07/26 02:00:50;;;;;;;8.20;7.20;;;;;;;;;;5034746;28;20459;-83
2021/07/26 02:03:17;;;;;;;8.83;7.10;;;;;;;;;;5033727;28;20447;-84
2021/07/26 02:05:45;;;;;;;8.17;5.90;;;;;;;;;;5033894;28;20451;-84
2021/07/26 02:08:12;;;;;;;7.03;6.37;;;;;;;;;;5033601;28;20491;-84
2021/07/26 02:10:40;;;;;;;7.67;6.80;;;;;;;;;;5033773;28;20476;-85
2021/07/26 02:13:07;;;;;;;10.10;6.70;;;;;;;;;;5033407;28;20450;-85
2021/07/26 02:15:35;;;;;;;10.83;7.43;;;;;;;;;;5034312;28;20550;-83
2021/07/26 02:18:02;;;;;;;8.10;7.20;;;;;;;;;;5035146;28;20457;-84
2021/07/26 02:20:29;;;;;;;8.80;6.17;;;;;;;;;;5035261;28;20482;-84
2021/07/26 02:22:56;;;;;;;7.73;6.90;;;;;;;;;;5035765;28;20448;-85
2021/07/26 02:25:23;;;;;;;8.60;7.50;;;;;;;;;;5033577;28;20444;-82
2021/07/26 02:27:52;;;;;;;7.43;6.73;;;;;;;;;;5033495;28;20475;-83
2021/07/26 02:30:20;;;;;;;6.80;6.10;;;;;;;;;;5034195;28;20469;-83
2021/07/26 02:32:47;;;;;;;7.93;7.10;;;;;;;;;;5033743;28;20454;-84
2021/07/26 02:35:14;;;;;;;8.13;7.33;;;;;;;;;;5035457;28;21001;-72
2021/07/26 02:37:41;;;;;;;8.50;7.63;;;;;;;;;;5034131;28;20962;-84
2021/07/26 02:40:09;;;;;;;7.87;6.63;;;;;;;;;;5034860;28;20427;-83
2021/07/26 02:42:36;;;;;;;7.50;6.47;;;;;;;;;;5037949;28;20447;-83
2021/07/26 02:45:06;;;;;;;7.30;6.53;;;;;;;;;;5037736;28;20500;-82
2021/07/26 02:47:33;;;;;;;8.40;6.37;;;;;;;;;;5033946;28;20522;-81
2021/07/26 02:50:00;;;;;;;7.87;5.50;;;;;;;;;;5038278;28;20447;-83
2021/07/26 02:52:27;;;;;;;7.23;6.53;;;;;;;;;;5034037;28;20450;-83
2021/07/26 02:54:54;;;;;;;7.00;5.83;;;;;;;;;;5033216;28;20449;-83
2021/07/26 02:57:22;;;;;;;8.53;6.33;;;;;;;;;;5033073;28;20451;-81
2021/07/26 02:59:49;;;;;;;7.40;6.70;;;;;;;;;;5032900;28;20444;-81
2021/07/26 03:02:17;;;;;;;8.07;6.50;;;;;;;;;;5033557;28;20451;-80
2021/07/26 03:04:45;;;;;;;9.60;6.70;;;;;;;;;;5037317;28;20535;-82
2021/07/26 03:07:13;;;;;;;6.80;6.20;;;;;;;;;;5034590;28;20538;-82
2021/07/26 03:09:40;;;;;;;6.77;6.07;;;;;;;;;;5034392;28;20447;-82
2021/07/26 03:12:08;;;;;;;8.70;6.07;;;;;;;;;;5034157;28;20451;-82
2021/07/26 03:14:35;;;;;;;6.53;5.83;;;;;;;;;;5033416;28;20443;-82
2021/07/26 03:17:04;;;;;;;6.87;6.17;;;;;;;;;;5037950;28;20530;-83
2021/07/26 03:19:33;;;;;;;9.47;7.40;;;;;;;;;;5036543;28;20455;-82
2021/07/26 03:22:18;;;;;;;9.73;5.57;;;;;;;;;;5042199;28;20782;-83
2021/07/26 03:24:45;;;;;;;7.73;5.90;;;;;;;;;;5008991;28;20441;-82
2021/07/26 03:27:12;;;;;;;7.00;6.30;;;;;;;;;;5039067;28;21002;-82
2021/07/26 03:29:40;;;;;;;8.17;6.90;;;;;;;;;;5044458;28;20452;-82
2021/07/26 03:32:07;;;;;;;7.23;6.53;;;;;;;;;;5049200;28;20447;-82
2021/07/26 03:34:36;;;;;;;8.77;6.83;;;;;;;;;;5047490;28;20453;-83
2021/07/26 03:37:03;;;;;;;7.63;6.03;;;;;;;;;;5043490;28;20474;-82
2021/07/26 03:39:30;;;;;;;7.53;6.83;;;;;;;;;;5066870;28;21006;-82
2021/07/26 03:41:58;;;;;;;7.23;6.50;;;;;;;;;;5076565;28;20537;-83
2021/07/26 03:44:25;;;;;;;11.50;7.63;;;;;;;;;;5076656;28;20456;-81
2021/07/26 03:46:53;;;;;;;8.10;7.17;;;;;;;;;;5076638;28;20482;-82
2021/07/26 03:49:20;;;;;;;7.60;6.90;;;;;;;;;;5075972;28;20442;-81
2021/07/26 03:51:48;;;;;;;8.80;7.87;;;;;;;;;;5076135;28;20804;-84
2021/07/26 03:54:15;;;;;;;8.50;7.57;;;;;;;;;;5076509;28;20474;-83
2021/07/26 03:56:43;;;;;;;8.80;7.33;;;;;;;;;;5078594;28;20465;-83
2021/07/26 03:59:10;;;;;;;7.77;6.87;;;;;;;;;;5091618;28;20810;-83
2021/07/26 04:01:37;;;;;;;9.50;7.40;;;;;;;;;;5081986;28;20439;-82
2021/07/26 04:04:04;;;;;;;8.00;7.20;;;;;;;;;;5075819;28;20528;-83
2021/07/26 04:06:32;;;;;;;13.27;7.33;;;;;;;;;;5084576;28;20440;-82
2021/07/26 04:09:01;;;;;;;10.30;7.13;;;;;;;;;;5096667;28;20561;-83
2021/07/26 04:11:32;;;;;;;8.00;7.20;;;;;;;;;;5085362;28;20441;-82
2021/07/26 04:14:02;;;;;;;9.07;6.93;;;;;;;;;;5076636;28;20467;-82
2021/07/26 04:16:29;;;;;;;12.60;7.23;;;;;;;;;;5076267;28;20441;-82
2021/07/26 04:18:57;;;;;;;9.40;7.43;;;;;;;;;;5075735;28;20439;-83
2021/07/26 04:21:29;;;;;;;15.20;7.00;;;;;;;;;;5090937;28;20436;-83
2021/07/26 04:23:56;;;;;;;8.60;6.80;;;;;;;;;;5096209;28;20512;-83
2021/07/26 04:26:25;;;;;;;9.00;6.70;;;;;;;;;;5095463;28;20474;-82
2021/07/26 04:28:53;;;;;;;8.93;7.23;;;;;;;;;;5095428;28;20473;-82
2021/07/26 04:31:20;;;;;;;8.87;6.80;;;;;;;;;;5094996;28;20446;-82
2021/07/26 04:33:47;;;;;;;7.00;6.30;;;;;;;;;;5096099;28;20505;-83
2021/07/26 04:36:14;;;;;;;9.77;6.50;;;;;;;;;;5095692;28;20441;-83
2021/07/26 04:38:41;;;;;;;7.00;6.30;;;;;;;;;;5095683;28;20564;-82
2021/07/26 04:41:08;;;;;;;11.50;5.83;;;;;;;;;;5090340;28;20440;-84
2021/07/26 04:43:37;;;;;;;10.73;6.80;;;;;;;;;;5077785;28;20448;-82
2021/07/26 04:46:05;;;;;;;6.40;5.80;;;;;;;;;;5075243;28;20437;-79
2021/07/26 04:48:32;;;;;;;7.90;7.03;;;;;;;;;;5075590;28;20555;-82
2021/07/26 04:50:59;;;;;;;9.03;6.67;;;;;;;;;;5076421;28;20441;-77
2021/07/26 04:53:27;;;;;;;9.07;6.60;;;;;;;;;;5075408;28;20502;-77
2021/07/26 04:55:54;;;;;;;7.90;6.10;;;;;;;;;;5075147;28;20449;-76
2021/07/26 04:58:21;;;;;;;8.10;5.43;;;;;;;;;;5075597;28;20441;-77
2021/07/26 05:00:49;;;;;;;7.03;6.20;;;;;;;;;;5074880;28;20523;-78
2021/07/26 05:03:17;;;;;;;7.13;5.30;;;;;;;;;;5062298;28;20543;-77
2021/07/26 05:05:44;;;;;;;6.57;5.67;;;;;;;;;;5074626;28;20440;-78
2021/07/26 05:08:11;;;;;;;7.80;6.10;;;;;;;;;;5074727;28;20488;-78
2021/07/26 05:10:39;;;;;;;8.70;6.40;;;;;;;;;;5074452;28;20448;-77
2021/07/26 05:13:06;;;;;;;7.43;6.00;;;;;;;;;;5074805;28;20446;-78
2021/07/26 05:15:33;;;;;;;6.20;5.17;;;;;;;;;;5074922;28;20448;-78
2021/07/26 05:18:02;;;;;;;8.80;5.57;;;;;;;;;;5074506;28;20445;-77
2021/07/26 05:20:32;;;;;;;6.67;5.70;;;;;;;;;;5074379;28;20444;-78
2021/07/26 05:22:59;;;;;;;6.70;5.70;;;;;;;;;;5074652;28;20483;-77
2021/07/26 05:25:26;;;;;;;7.37;5.30;;;;;;;;;;5074746;28;20442;-78
2021/07/26 05:27:53;;;;;;;7.07;5.80;;;;;;;;;;5074451;28;20478;-77
2021/07/26 05:30:20;;;;;;;6.47;5.87;;;;;;;;;;5074584;28;20442;-78
2021/07/26 05:32:48;;;;;;;7.20;6.07;;;;;;;;;;5073778;28;20446;-78
2021/07/26 05:35:16;;;;;;;6.60;5.20;;;;;;;;;;5074096;28;20532;-77
2021/07/26 05:37:43;;;;;;;7.27;5.90;;;;;;;;;;5074086;28;20469;-77
2021/07/26 05:40:11;;;;;;;6.37;5.17;;;;;;;;;;5074042;28;20437;-77
2021/07/26 05:42:39;;;;;;;6.47;5.07;;;;;;;;;;5073698;28;20443;-76
2021/07/26 05:45:08;;;;;;;6.57;5.70;;;;;;;;;;5073986;28;20440;-76
2021/07/26 05:47:36;;;;;;;7.97;6.00;;;;;;;;;;5074043;28;20496;-73
2021/07/26 05:50:05;;;;;;;5.60;4.60;;;;;;;;;;5073829;28;20437;-75
2021/07/26 05:52:33;;;;;;;6.67;5.00;;;;;;;;;;5073898;28;20537;-77
2021/07/26 05:55:02;;;;;;;6.80;4.47;;;;;;;;;;5074387;28;20925;-76
2021/07/26 05:57:33;;;;;;;6.43;4.73;;;;;;;;;;5074275;28;20449;-77
2021/07/26 06:00:07;;;;;;;6.40;4.90;;;;;;;;;;5074281;28;20908;-77
2021/07/26 06:02:34;;;;;;;5.70;4.60;;;;;;;;;;5073460;28;20449;-77
2021/07/26 06:05:02;;;;;;;5.70;5.10;;;;;;;;;;5073353;28;20448;-77
2021/07/26 06:07:29;;;;;;;6.83;5.20;;;;;;;;;;5073390;28;20460;-77
2021/07/26 06:09:57;;;;;;;15.97;5.70;;;;;;;;;;5073673;28;20446;-77
2021/07/26 06:12:26;;;;;;;11.40;6.27;;;;;;;;;;5073604;28;20525;-76
2021/07/26 06:14:53;;;;;;;6.37;5.30;;;;;;;;;;5073681;28;20451;-78
2021/07/26 06:17:23;;;;;;;5.60;4.90;;;;;;;;;;5074134;28;20798;-77
2021/07/26 06:19:50;;;;;;;8.50;4.47;;;;;;;;;;5074353;28;20933;-77
2021/07/26 06:22:18;;;;;;;4.80;4.40;;;;;;;;;;5073781;28;20805;-77
2021/07/26 06:24:45;;;;;;;7.10;5.53;;;;;;;;;;5073633;28;20445;-77
2021/07/26 06:27:14;;;;;;;5.83;4.60;;;;;;;;;;5073745;28;20458;-77
2021/07/26 06:29:41;;;;;;;7.40;5.03;;;;;;;;;;5073740;28;20478;-77
2021/07/26 06:32:08;;;;;;;5.33;4.83;;;;;;;;;;5073121;28;20534;-77
2021/07/26 06:34:35;;;;;;;5.87;4.60;;;;;;;;;;5073475;28;20528;-77
2021/07/26 06:37:03;;;;;;;6.80;5.10;;;;;;;;;;5072988;28;21021;-78
2021/07/26 06:39:30;;;;;;;5.70;5.13;;;;;;;;;;5073696;28;20564;-78
2021/07/26 06:41:57;;;;;;;5.07;4.57;;;;;;;;;;5073371;28;20440;-78
2021/07/26 06:44:26;;;;;;;5.27;4.77;;;;;;;;;;5073050;28;20442;-77
2021/07/26 06:46:53;;;;;;;4.67;4.30;;;;;;;;;;5073342;28;20447;-76
2021/07/26 06:49:20;;;;;;;6.20;4.30;;;;;;;;;;5073586;28;20484;-77
2021/07/26 06:51:48;;;;;;;8.33;5.00;;;;;;;;;;5073243;28;20451;-77
2021/07/26 06:54:15;;;;;;;5.37;4.87;;;;;;;;;;5073304;28;20814;-77
2021/07/26 06:56:42;;;;;;;5.07;4.50;;;;;;;;;;5077474;28;20561;-78
2021/07/26 06:59:09;;;;;;;6.97;4.60;;;;;;;;;;5076735;28;20538;-77
2021/07/26 07:01:38;;;;;;;8.97;4.30;;;;;;;;;;5077148;28;20770;-77
2021/07/26 07:04:06;;;;;;;7.57;4.57;;;;;;;;;;5077136;28;20873;-77
2021/07/26 07:06:33;;;;;;;8.13;4.17;;;;;;;;;;5077626;28;20444;-77
2021/07/26 07:09:00;;;;;;;4.13;3.73;;;;;;;;;;5076952;28;20480;-77
2021/07/26 07:11:28;;;;;;;4.90;4.40;;;;;;;;;;5077218;28;20443;-78
2021/07/26 07:13:56;;;;;;;8.50;4.47;;;;;;;;;;5076839;28;20447;-78
2021/07/26 07:16:24;;;;;;;9.83;4.30;;;;;;;;;;5076479;28;20538;-79
2021/07/26 07:18:53;;;;;;;5.63;4.03;;;;;;;;;;5076973;28;20449;-78
2021/07/26 07:21:22;;;;;;;4.37;3.97;;;;;;;;;;5076950;28;20533;-78
2021/07/26 07:23:49;;;;;;;12.40;4.20;;;;;;;;;;5076599;28;20443;-79
2021/07/26 07:26:17;;;;;;;3.80;3.50;;;;;;;;;;5076309;28;20449;-78
2021/07/26 07:28:45;;;;;;;4.47;3.50;;;;;;;;;;5076226;28;20521;-78
2021/07/26 07:31:13;;;;;;;5.03;4.13;;;;;;;;;;5076247;28;20493;-79
2021/07/26 07:33:40;;;;;;;4.70;4.30;;;;;;;;;;5076828;28;20448;-78
2021/07/26 07:36:09;;;;;;;6.03;4.20;;;;;;;;;;5076144;28;20448;-79
2021/07/26 07:38:36;;;;;;;6.00;4.17;;;;;;;;;;5076761;28;20507;-78
2021/07/26 07:41:05;;;;;;;5.40;3.70;;;;;;;;;;5076839;28;20514;-79
2021/07/26 07:43:32;;;;;;;4.60;3.83;;;;;;;;;;5076797;28;20467;-78
2021/07/26 07:45:59;;;;;;;4.23;3.83;;;;;;;;;;5076443;28;20548;-79
2021/07/26 07:48:28;;;;;;;5.50;3.70;;;;;;;;;;5075998;28;20476;-78
2021/07/26 07:50:55;;;;;;;3.93;3.33;;;;;;;;;;5076284;28;20436;-78
2021/07/26 07:53:24;;;;;;;4.50;4.10;;;;;;;;;;5075970;28;20531;-78
2021/07/26 07:55:52;;;;;;;3.57;3.20;;;;;;;;;;5076325;28;20446;-79
2021/07/26 07:58:19;;;;;;;3.53;3.23;;;;;;;;;;5076493;28;20432;-79
2021/07/26 08:00:50;;;;;;;7.00;3.90;;;;;;;;;;5075566;28;20492;-79
2021/07/26 08:03:18;;;;;;;4.20;3.80;;;;;;;;;;5075723;28;20437;-76
2021/07/26 08:05:45;;;;;;;3.87;3.43;;;;;;;;;;5075535;28;20450;-79
2021/07/26 08:08:12;;;;;;;5.07;4.37;;;;;;;;;;5074805;28;20450;-80
2021/07/26 08:10:41;;;;;;;7.17;6.47;;;;;;;;;;5075824;28;20494;-80
2021/07/26 08:13:08;;;;;;;7.30;3.97;;;;;;;;;;5076010;28;20542;-80
2021/07/26 08:15:35;;;;;;;5.90;3.70;;;;;;;;;;5075673;28;20799;-80
2021/07/26 08:18:03;;;;;;;4.63;4.10;;;;;;;;;;5075458;28;20451;-80
2021/07/26 08:20:30;;;;;;;5.00;4.20;;;;;;;;;;5076279;28;20767;-80
2021/07/26 08:22:57;;;;;;;5.03;4.53;;;;;;;;;;5075295;28;20452;-81
2021/07/26 08:25:25;;;;;;;9.13;4.50;;;;;;;;;;5075979;28;20445;-81
2021/07/26 08:27:55;;;;;;;6.70;5.50;;;;;;;;;;5075468;28;20532;-80
2021/07/26 08:30:23;;;;;;;41.60;7.93;;;;;;;;;;5075130;28;20504;-78
2021/07/26 08:32:50;;;;;;;10.07;5.30;;;;;;;;;;5075316;28;20441;-81
2021/07/26 08:35:18;;;;;;;8.50;4.30;;;;;;;;;;5075654;28;20527;-80
2021/07/26 08:37:45;;;;;;;4.50;3.90;;;;;;;;;;5070763;28;20469;-80
2021/07/26 08:40:13;;;;;;;6.67;4.23;;;;;;;;;;5055790;28;20522;-81
2021/07/26 08:42:40;;;;;;;5.27;4.10;;;;;;;;;;5054885;28;20454;-81
2021/07/26 08:45:09;;;;;;;5.60;4.60;;;;;;;;;;5055082;28;20459;-81
2021/07/26 08:47:40;;;;;;;4.50;3.70;;;;;;;;;;5054741;28;20437;-81
2021/07/26 08:50:08;;;;;;;5.33;3.63;;;;;;;;;;5055431;28;20507;-81
2021/07/26 08:52:36;;;;;;;3.53;3.17;;;;;;;;;;5054944;28;20534;-81
2021/07/26 08:55:03;;;;;;;4.17;3.53;;;;;;;;;;5055042;28;20500;-81
2021/07/26 08:57:31;;;;;;;4.50;3.80;;;;;;;;;;5054735;28;20859;-82
2021/07/26 08:59:58;;;;;;;3.80;3.43;;;;;;;;;;5054954;28;20501;-82
2021/07/26 09:02:27;;;;;;;6.47;4.00;;;;;;;;;;5054387;28;20443;-81
2021/07/26 09:04:54;;;;;;;3.60;3.30;;;;;;;;;;5054752;28;20445;-80
2021/07/26 09:07:27;;;;;;;5.70;3.70;;;;;;;;;;5054763;28;20456;-80
2021/07/26 09:09:54;;;;;;;3.77;3.47;;;;;;;;;;5054687;28;20472;-80
2021/07/26 09:12:30;;;;;;;3.33;2.90;;;;;;;;;;5054674;28;20442;-77
2021/07/26 09:14:58;;;;;;;4.37;3.57;;;;;;;;;;5054759;28;20428;-81
2021/07/26 09:17:26;;;;;;;3.77;2.67;;;;;;;;;;5055023;28;20452;-81
2021/07/26 09:19:58;;;;;;;3.47;2.63;;;;;;;;;;5054720;28;20555;-77
2021/07/26 09:22:30;;;;;;;3.60;3.30;;;;;;;;;;5054040;28;20480;-80
2021/07/26 09:25:19;;;;;;;3.43;2.47;;;;;;;;;;5054074;28;20480;-77
2021/07/26 09:28:06;;;;;;;3.80;3.00;;;;;;;;;;5054367;28;20432;-79
2021/07/26 09:30:34;;;;;;;4.77;3.23;;;;;;;;;;5054536;28;20520;-80
2021/07/26 09:33:04;;;;;;;3.30;2.90;;;;;;;;;;5054440;28;20439;-75
2021/07/26 09:35:31;;;;;;;3.07;2.63;;;;;;;;;;5053911;28;20943;-78
2021/07/26 09:37:59;;;;;;;4.17;2.53;;;;;;;;;;5053677;28;20469;-82
2021/07/26 09:40:30;;;;;;;4.17;3.13;;;;;;;;;;5054257;28;20799;-81
2021/07/26 09:42:57;;;;;;;4.43;3.20;;;;;;;;;;5053861;28;20440;-81
2021/07/26 09:45:25;;;;;;;4.10;3.60;;;;;;;;;;5053670;28;20459;-80
2021/07/26 09:48:09;;;;;;;4.50;3.30;;;;;;;;;;5054052;28;20809;-81
2021/07/26 09:50:37;;;;;;;7.73;5.73;;;;;;;;;;5053569;28;20479;-81
2021/07/26 09:53:11;;;;;;;6.43;2.70;;;;;;;;;;5054267;28;20842;-81
2021/07/26 09:55:41;;;;;;;3.13;2.83;;;;;;;;;;5053548;28;20534;-82
2021/07/26 09:58:09;;;;;;;3.50;3.27;;;;;;;;;;5053855;28;20444;-82
2021/07/26 10:00:36;;;;;;;3.70;3.30;;;;;;;;;;5053853;28;20447;-81
2021/07/26 10:03:05;;;;;;;3.70;2.50;;;;;;;;;;5053296;28;20484;-81
2021/07/26 10:05:34;;;;;;;4.07;3.20;;;;;;;;;;5053762;28;20438;-82
2021/07/26 10:08:02;;;;;;;3.80;3.00;;;;;;;;;;5053247;28;20554;-82
2021/07/26 10:10:30;;;;;;;131.73;18.73;;;;;;;;;;5053607;28;20476;-82
2021/07/26 10:12:57;;;;;;;8.83;4.07;;;;;;;;;;5054171;28;20521;-82
2021/07/26 10:15:25;;;;;;;4.20;3.17;;;;;;;;;;5053939;28;20485;-83
2021/07/26 10:17:52;;;;;;;4.33;3.93;;;;;;;;;;5053603;28;20446;-82
2021/07/26 10:20:20;;;;;;;3.27;2.97;;;;;;;;;;5053459;28;20539;-82
2021/07/26 10:22:56;;;;;;;3.77;3.07;;;;;;;;;;5053191;28;20528;-83
2021/07/26 10:25:34;;;;;;;5.63;3.43;;;;;;;;;;5053495;28;20443;-83
2021/07/26 10:28:04;;;;;;;3.73;3.30;;;;;;;;;;5053359;28;20538;-79
2021/07/26 10:30:35;;;;;;;3.23;2.93;;;;;;;;;;5052576;28;20488;-82
2021/07/26 10:33:03;;;;;;;3.93;3.17;;;;;;;;;;5053492;28;20519;-78
2021/07/26 10:35:40;;;;;;;4.13;3.73;;;;;;;;;;5053311;28;20444;-81
2021/07/26 10:38:10;;;;;;;3.23;2.87;;;;;;;;;;5053514;28;21018;-83
2021/07/26 10:40:41;;;;;;;3.97;3.60;;;;;;;;;;5053893;28;20440;-83
2021/07/26 10:43:12;;;;;;;4.73;4.30;;;;;;;;;;5052848;28;20961;-83
2021/07/26 10:46:00;;;;;;;7.20;3.30;;;;;;;;;;5053135;28;20431;-82
2021/07/26 10:48:37;;;;;;;4.30;3.23;;;;;;;;;;5053400;28;20429;-78
2021/07/26 10:51:24;;;;;;;5.70;3.03;;;;;;;;;;5052773;28;20480;-82
2021/07/26 10:53:59;;;;;;;3.47;3.13;;;;;;;;;;5052913;28;20494;-79
2021/07/26 10:56:26;;;;;;;4.40;4.00;;;;;;;;;;5052780;28;20493;-83
2021/07/26 10:59:11;;;;;;;3.60;3.30;;;;;;;;;;5052859;28;20936;-77
2021/07/26 11:01:53;;;;;;;4.20;3.80;;;;;;;;;;5053549;28;20463;-81
2021/07/26 11:04:40;;;;;;;4.73;3.53;;;;;;;;;;5050870;28;20943;-84
2021/07/26 11:07:08;;;;;;;3.13;2.83;;;;;;;;;;5053208;28;20456;-83
2021/07/26 11:09:43;;;;;;;4.00;3.60;;;;;;;;;;5053817;28;20478;-83
2021/07/26 11:12:10;;;;;;;4.10;3.70;;;;;;;;;;5052864;28;20858;-84
2021/07/26 11:14:38;;;;;;;4.10;3.70;;;;;;;;;;5053013;28;20840;-84
2021/07/26 11:17:07;;;;;;;4.90;3.20;;;;;;;;;;5052360;28;20449;-85
2021/07/26 11:19:39;;;;;;;14.80;5.33;;;;;;;;;;5053069;28;20528;-83
2021/07/26 11:22:06;;;;;;;17.37;5.83;;;;;;;;;;5053792;28;20437;-81
2021/07/26 11:24:52;;;;;;;8.10;3.73;;;;;;;;;;5052845;28;20487;-80
2021/07/26 11:27:39;;;;;;;3.40;3.10;;;;;;;;;;5052658;28;21025;-79
2021/07/26 11:30:08;;;;;;;3.43;3.13;;;;;;;;;;5053287;28;20990;-81
2021/07/26 11:32:36;;;;;;;3.83;3.47;;;;;;;;;;5052814;28;20439;-82
2021/07/26 11:35:05;;;;;;;5.07;3.17;;;;;;;;;;5052912;28;20483;-84
2021/07/26 11:37:32;;;;;;;4.13;3.83;;;;;;;;;;5050071;28;20484;-82
2021/07/26 11:40:04;;;;;;;4.03;3.63;;;;;;;;;;5032510;28;21012;-85
2021/07/26 11:42:32;;;;;;;6.63;3.93;;;;;;;;;;5036367;28;20435;-83
2021/07/26 11:45:01;;;;;;;5.57;3.83;;;;;;;;;;5035939;28;20534;-83
2021/07/26 11:47:32;;;;;;;4.23;3.90;;;;;;;;;;5036478;28;20540;-79
2021/07/26 11:50:00;;;;;;;4.07;3.67;;;;;;;;;;5036098;28;20479;-83
2021/07/26 11:52:27;;;;;;;3.80;3.50;;;;;;;;;;5036658;28;20530;-77
2021/07/26 11:54:54;;;;;;;6.33;4.03;;;;;;;;;;5036376;28;20463;-79
2021/07/26 11:57:23;;;;;;;4.53;3.57;;;;;;;;;;5036481;28;20538;-75
2021/07/26 11:59:51;;;;;;;8.40;4.67;;;;;;;;;;5036253;28;21006;-74
2021/07/26 12:02:24;;;;;;;5.87;4.47;;;;;;;;;;5035924;28;20444;-82
2021/07/26 12:04:52;;;;;;;6.03;4.30;;;;;;;;;;5035537;28;20433;-78
2021/07/26 12:07:39;;;;;;;4.30;4.00;;;;;;;;;;5035544;28;20448;-81
2021/07/26 12:10:06;;;;;;;5.67;3.23;;;;;;;;;;5035878;28;20969;-82
2021/07/26 12:12:38;;;;;;;4.70;3.60;;;;;;;;;;5035904;28;20473;-75
2021/07/26 12:15:25;;;;;;;3.93;3.50;;;;;;;;;;5035804;28;20427;-82
2021/07/26 12:18:02;;;;;;;5.00;3.80;;;;;;;;;;5028988;28;20443;-80
2021/07/26 12:20:29;;;;;;;9.50;4.63;;;;;;;;;;5035395;28;20455;-79
2021/07/26 12:22:57;;;;;;;5.93;3.50;;;;;;;;;;5035526;28;20448;-81
2021/07/26 12:25:25;;;;;;;4.83;3.67;;;;;;;;;;5035247;28;21044;-77
2021/07/26 12:27:58;;;;;;;4.73;3.90;;;;;;;;;;5035353;28;20444;-78
2021/07/26 12:30:36;;;;;;;4.27;3.87;;;;;;;;;;5035171;28;20473;-82
2021/07/26 12:33:03;;;;;;;3.80;3.23;;;;;;;;;;5035217;28;20473;-83
2021/07/26 12:35:30;;;;;;;3.70;2.90;;;;;;;;;;5035305;28;21023;-81
2021/07/26 12:38:08;;;;;;;4.20;3.17;;;;;;;;;;5035299;28;20490;-83
2021/07/26 12:40:36;;;;;;;3.20;3.00;;;;;;;;;;5034996;28;20443;-80
2021/07/26 12:43:08;;;;;;;4.37;3.30;;;;;;;;;;5035495;28;20447;-71
2021/07/26 12:45:36;;;;;;;5.33;2.83;;;;;;;;;;5034685;28;20447;-82
2021/07/26 12:48:14;;;;;;;6.60;3.67;;;;;;;;;;5035143;28;20441;-83
2021/07/26 12:50:42;;;;;;;5.23;3.20;;;;;;;;;;5035094;28;20472;-83
2021/07/26 12:53:10;;;;;;;3.40;3.10;;;;;;;;;;5035053;28;20537;-78
2021/07/26 12:55:38;;;;;;;3.87;3.57;;;;;;;;;;5034641;28;20449;-80
2021/07/26 12:58:05;;;;;;;3.33;3.00;;;;;;;;;;5035352;28;20459;-79
2021/07/26 13:00:35;;;;;;;2.83;2.63;;;;;;;;;;5035108;28;20427;-80
2021/07/26 13:03:03;;;;;;;2.83;2.60;;;;;;;;;;5034042;28;20949;-73
2021/07/26 13:05:31;;;;;;;14.97;4.50;;;;;;;;;;5034369;28;20444;-79
2021/07/26 13:07:58;;;;;;;6.20;4.40;;;;;;;;;;5034520;28;20433;-81
2021/07/26 13:10:25;;;;;;;3.33;3.13;;;;;;;;;;5034500;28;20471;-79
2021/07/26 13:12:52;;;;;;;3.20;3.00;;;;;;;;;;5034136;28;20425;-78
2021/07/26 13:15:19;;;;;;;4.40;2.67;;;;;;;;;;5034184;28;20450;-75
2021/07/26 13:17:48;;;;;;;2.97;2.77;;;;;;;;;;5034341;28;20457;-79
2021/07/26 13:20:15;;;;;;;3.30;3.00;;;;;;;;;;5034093;28;20463;-79
2021/07/26 13:22:42;;;;;;;3.30;2.97;;;;;;;;;;5034220;28;20457;-79
2021/07/26 13:25:11;;;;;;;3.40;3.10;;;;;;;;;;5034378;28;20420;-78
2021/07/26 13:27:40;;;;;;;3.07;2.87;;;;;;;;;;5034672;28;20422;-79
2021/07/26 13:30:08;;;;;;;3.27;2.97;;;;;;;;;;5034324;28;20489;-78
2021/07/26 13:32:36;;;;;;;3.17;2.80;;;;;;;;;;5034459;28;20521;-79
2021/07/26 13:35:05;;;;;;;3.83;3.53;;;;;;;;;;5053738;28;20417;-80
2021/07/26 13:37:33;;;;;;;3.60;2.93;;;;;;;;;;5058635;28;20539;-77
2021/07/26 13:40:01;;;;;;;3.47;3.07;;;;;;;;;;5094243;28;20408;-76
2021/07/26 13:42:28;;;;;;;3.17;2.97;;;;;;;;;;5095067;28;20441;-80
2021/07/26 13:44:55;;;;;;;2.90;2.70;;;;;;;;;;5094172;28;20462;-81
2021/07/26 13:47:23;;;;;;;3.10;2.90;;;;;;;;;;5093908;28;20481;-76
2021/07/26 13:49:50;;;;;;;3.37;3.07;;;;;;;;;;5093521;28;20422;-74
2021/07/26 13:52:18;;;;;;;4.17;3.80;;;;;;;;;;5094062;28;20471;-74
2021/07/26 13:54:45;;;;;;;3.57;3.07;;;;;;;;;;5094076;28;20424;-76
2021/07/26 13:57:13;;;;;;;3.70;3.40;;;;;;;;;;5094150;28;20422;-75
2021/07/26 13:59:42;;;;;;;4.00;3.70;;;;;;;;;;5093578;28;20531;-76
2021/07/26 14:02:10;;;;;;;3.57;3.27;;;;;;;;;;5082146;28;20495;-76
2021/07/26 14:04:38;;;;;;;4.33;4.03;;;;;;;;;;5072188;28;20449;-77
2021/07/26 14:07:05;;;;;;;4.20;3.87;;;;;;;;;;5073476;28;20501;-78
2021/07/26 14:09:33;;;;;;;3.53;3.23;;;;;;;;;;5073325;28;20415;-79
2021/07/26 14:12:02;;;;;;;3.50;3.20;;;;;;;;;;5073281;28;20459;-77
2021/07/26 14:14:29;;;;;;;5.90;3.70;;;;;;;;;;5073616;28;20469;-74
2021/07/26 14:16:57;;;;;;;3.60;3.30;;;;;;;;;;5073122;28;20533;-82
2021/07/26 14:19:26;;;;;;;3.30;2.97;;;;;;;;;;5073208;28;21015;-82
2021/07/26 14:21:53;;;;;;;4.50;3.70;;;;;;;;;;5073346;28;20948;-81
2021/07/26 14:24:20;;;;;;;4.33;3.60;;;;;;;;;;5073450;28;20813;-79
2021/07/26 14:26:49;;;;;;;4.53;3.90;;;;;;;;;;5074848;28;20798;-73
2021/07/26 14:29:16;;;;;;;3.80;3.50;;;;;;;;;;5073120;28;20427;-73
2021/07/26 14:31:43;;;;;;;5.80;3.17;;;;;;;;;;5073591;28;20479;-75
2021/07/26 14:34:11;;;;;;;3.70;3.40;;;;;;;;;;5073303;28;20413;-78
2021/07/26 14:36:38;;;;;;;4.50;4.10;;;;;;;;;;5073133;28;20540;-81
2021/07/26 14:39:05;;;;;;;4.37;3.30;;;;;;;;;;5073270;28;20454;-76
2021/07/26 14:41:32;;;;;;;4.00;3.70;;;;;;;;;;5073184;28;20450;-75
2021/07/26 14:44:01;;;;;;;6.20;3.57;;;;;;;;;;5073219;28;20419;-77
2021/07/26 14:46:28;;;;;;;3.57;3.37;;;;;;;;;;5072992;28;20422;-75
2021/07/26 14:48:56;;;;;;;4.27;3.87;;;;;;;;;;5073535;28;20479;-76
2021/07/26 14:51:24;;;;;;;3.80;3.50;;;;;;;;;;5073255;28;20833;-77
2021/07/26 14:53:52;;;;;;;4.17;3.77;;;;;;;;;;5073374;28;20537;-76